Time;durP1;ratioP1;P1;durP2;ratioP2;P2;SDS_P1;SDS_P2;PMS_P1;PMS_P2;Temp;Humidity;BMP_temperature;BMP_pressure;BME280_temperature;BME280_humidity;BME280_pressure;Samples;Min_cycle;Max_cycle;Signal;HPM_P1;HPM_P2
2023/01/23 00:02:21;;;;;;;0.20;0.20;;;;;;;4.52;69.78;103717.22;5053370;28;20116;-80
2023/01/23 00:04:48;;;;;;;0.20;0.20;;;;;;;4.53;70.17;103705.00;5052936;28;20492;-81
2023/01/23 00:07:14;;;;;;;0.20;0.20;;;;;;;4.51;70.24;103714.50;5049168;28;20026;-80
2023/01/23 00:09:40;;;;;;;1.00;1.00;;;;;;;4.51;70.18;103704.91;5053252;28;20031;-80
2023/01/23 00:12:06;;;;;;;0.10;0.10;;;;;;;4.53;70.66;103707.59;5048579;28;20116;-81
2023/01/23 00:14:33;;;;;;;0.10;0.10;;;;;;;4.54;70.54;103707.69;5053481;28;20032;-80
2023/01/23 00:16:59;;;;;;;0.10;0.10;;;;;;;4.54;70.65;103705.06;5080249;28;20044;-79
2023/01/23 00:19:25;;;;;;;0.32;0.32;;;;;;;4.57;70.81;103706.03;5077670;28;20032;-80
2023/01/23 00:21:51;;;;;;;0.20;0.20;;;;;;;4.57;70.45;103700.78;5078178;28;20021;-79
2023/01/23 00:24:17;;;;;;;0.45;0.45;;;;;;;4.60;70.79;103698.31;5078410;28;20028;-79
2023/01/23 00:26:43;;;;;;;0.10;0.10;;;;;;;4.61;70.89;103701.03;5095707;28;20037;-80
2023/01/23 00:29:09;;;;;;;0.28;0.28;;;;;;;4.63;70.68;103703.75;5081447;28;20067;-80
2023/01/23 00:31:37;;;;;;;0.22;0.22;;;;;;;4.63;70.66;103701.09;5083423;28;20076;-79
2023/01/23 00:34:07;;;;;;;0.13;0.13;;;;;;;4.64;70.78;103705.53;5090765;28;20054;-80
2023/01/23 00:36:36;;;;;;;0.65;0.25;;;;;;;4.64;70.40;103700.28;5071497;28;20108;-81
2023/01/23 00:39:05;;;;;;;0.63;0.63;;;;;;;4.64;70.42;103700.28;5054932;28;20476;-81
2023/01/23 00:41:32;;;;;;;0.10;0.10;;;;;;;4.60;70.41;103693.06;5058781;28;20031;-81
2023/01/23 00:43:58;;;;;;;0.20;0.20;;;;;;;4.60;70.48;103687.81;5054185;28;20041;-80
2023/01/23 00:46:24;;;;;;;0.10;0.10;;;;;;;4.60;70.82;103690.44;5062063;28;20044;-81
2023/01/23 00:48:51;;;;;;;0.35;0.35;;;;;;;4.61;70.87;103687.00;5056792;28;20056;-80
2023/01/23 00:51:17;;;;;;;0.35;0.35;;;;;;;4.59;70.83;103680.78;5058007;28;20069;-81
2023/01/23 00:53:43;;;;;;;0.40;0.40;;;;;;;4.56;70.26;103665.78;5060015;28;20037;-81
2023/01/23 00:56:10;;;;;;;0.10;0.10;;;;;;;4.55;70.63;103669.22;5057438;28;20033;-80
2023/01/23 00:58:36;;;;;;;0.17;0.17;;;;;;;4.54;70.50;103676.19;5050678;28;20116;-80
2023/01/23 01:01:02;;;;;;;0.10;0.10;;;;;;;4.54;70.67;103670.91;5051254;28;20052;-81
2023/01/23 01:03:28;;;;;;;0.20;0.20;;;;;;;4.54;70.88;103673.53;5056035;28;20036;-81
2023/01/23 01:05:55;;;;;;;0.25;0.25;;;;;;;4.54;70.51;103662.16;5057117;28;20047;-81
2023/01/23 01:08:21;;;;;;;0.10;0.10;;;;;;;4.54;70.76;103670.91;5049835;28;20037;-80
2023/01/23 01:10:47;;;;;;;0.10;0.10;;;;;;;4.54;70.94;103683.16;5053499;28;20057;-80
2023/01/23 01:13:15;;;;;;;0.55;0.55;;;;;;;4.53;70.97;103684.88;5056474;28;20411;-80
2023/01/23 01:15:41;;;;;;;0.10;0.10;;;;;;;4.51;70.64;103688.25;5057755;28;20109;-81
2023/01/23 01:18:07;;;;;;;0.17;0.17;;;;;;;4.49;70.34;103679.41;5052967;28;20075;-80
2023/01/23 01:20:34;;;;;;;0.10;0.10;;;;;;;4.50;70.50;103691.72;5052482;28;20087;-80
2023/01/23 01:23:00;;;;;;;0.10;0.10;;;;;;;4.48;70.60;103685.47;5052221;28;20128;-80
2023/01/23 01:25:26;;;;;;;0.20;0.20;;;;;;;4.48;70.93;103686.38;5061373;28;20025;-80
2023/01/23 01:27:54;;;;;;;0.10;0.10;;;;;;;4.48;70.79;103682.84;5073009;28;20033;-81
2023/01/23 01:30:20;;;;;;;0.20;0.20;;;;;;;4.48;70.35;103682.84;5072611;28;20039;-80
2023/01/23 01:32:47;;;;;;;0.10;0.10;;;;;;;4.48;70.59;103682.84;5077447;28;20031;-81
2023/01/23 01:35:14;;;;;;;0.73;0.73;;;;;;;4.50;70.91;103681.22;5072274;28;20037;-81
2023/01/23 01:37:41;;;;;;;0.20;0.20;;;;;;;4.49;70.73;103672.41;5070891;28;20024;-80
2023/01/23 01:40:11;;;;;;;0.10;0.10;;;;;;;4.49;70.72;103682.91;5064173;28;20028;-80
2023/01/23 01:42:41;;;;;;;0.10;0.10;;;;;;;4.47;70.61;103675.78;5067899;28;20032;-80
2023/01/23 01:45:47;;;;;;;0.10;0.10;;;;;;;4.53;70.65;103684.88;5068267;28;20029;-81
2023/01/23 01:48:14;;;;;;;0.65;0.65;;;;;;;4.43;70.70;103689.59;5054405;28;20045;-79
2023/01/23 01:50:41;;;;;;;0.20;0.20;;;;;;;4.42;70.59;103687.78;5054939;28;20075;-80
2023/01/23 01:53:07;;;;;;;0.10;0.10;;;;;;;4.40;71.21;103690.34;5069945;28;20029;-79
2023/01/23 01:55:34;;;;;;;0.20;0.20;;;;;;;4.39;71.10;103693.78;5076740;28;20040;-80
2023/01/23 01:58:00;;;;;;;0.30;0.30;;;;;;;4.37;70.68;103696.34;5071980;28;20036;-80
2023/01/23 02:00:26;;;;;;;0.20;0.20;;;;;;;4.36;70.90;103688.34;5072671;28;20520;-80
2023/01/23 02:02:57;;;;;;;0.17;0.17;;;;;;;4.36;70.91;103686.66;5076418;28;20446;-80
2023/01/23 02:08:25;;;;;;;0.20;0.20;;;;;;;4.36;70.98;103694.53;5113770;27;20372;-80
2023/01/23 02:10:52;;;;;;;0.17;0.17;;;;;;;4.32;71.06;103697.78;5112038;28;20036;-80
2023/01/23 02:13:37;;;;;;;0.15;0.15;;;;;;;4.38;71.03;103706.00;5100492;28;20028;-80
2023/01/23 02:16:07;;;;;;;0.20;0.20;;;;;;;4.33;71.03;103704.84;5103711;28;20020;-80
2023/01/23 02:18:36;;;;;;;0.10;0.10;;;;;;;4.35;71.39;103704.97;5089108;28;20119;-80
2023/01/23 02:21:07;;;;;;;0.28;0.28;;;;;;;4.34;71.26;103708.41;5088710;28;20491;-80
2023/01/23 02:24:03;;;;;;;2.05;1.95;;;;;;;4.36;71.09;103717.22;5090230;28;20028;-80
2023/01/23 02:26:35;;;;;;;0.10;0.10;;;;;;;4.32;71.13;103715.28;5087602;28;20028;-79
2023/01/23 02:29:03;;;;;;;0.20;0.20;;;;;;;4.33;70.98;103714.47;5088131;28;20063;-80
2023/01/23 02:31:29;;;;;;;0.10;0.10;;;;;;;4.33;71.09;103711.84;5090507;28;20111;-80
2023/01/23 02:33:57;;;;;;;0.20;0.20;;;;;;;4.33;71.31;103707.47;5092140;28;20033;-79
2023/01/23 02:36:27;;;;;;;0.10;0.10;;;;;;;4.35;71.04;103712.84;5101551;28;20024;-79
2023/01/23 02:41:46;;;;;;;0.25;0.25;;;;;;;4.36;71.37;103705.03;5068963;28;20402;-80
2023/01/23 02:44:20;;;;;;;0.20;0.20;;;;;;;4.35;71.00;103712.84;5053577;28;20067;-79
2023/01/23 02:46:46;;;;;;;0.20;0.20;;;;;;;4.33;71.48;103710.09;5058153;28;20033;-81
2023/01/23 02:49:12;;;;;;;0.20;0.20;;;;;;;4.33;71.51;103706.59;5045397;28;20083;-80
2023/01/23 02:51:38;;;;;;;0.10;0.10;;;;;;;4.34;71.41;103708.41;5047279;28;20040;-79
2023/01/23 02:54:04;;;;;;;1.23;1.13;;;;;;;4.35;71.17;103702.34;5046911;28;20040;-80
2023/01/23 02:56:31;;;;;;;0.10;0.10;;;;;;;4.35;71.12;103708.47;5049872;28;20105;-80
2023/01/23 03:01:43;;;;;;;0.20;0.20;;;;;;;4.33;71.12;103719.72;5048403;28;20045;-80
2023/01/23 03:04:09;;;;;;;0.30;0.30;;;;;;;4.32;71.39;103708.28;5048998;28;20406;-80
2023/01/23 03:06:36;;;;;;;0.20;0.20;;;;;;;4.33;71.08;103709.22;5045436;28;20041;-80
2023/01/23 03:09:06;;;;;;;0.13;0.13;;;;;;;4.33;71.35;103710.09;5045478;28;20060;-80
2023/01/23 03:11:33;;;;;;;0.30;0.30;;;;;;;4.33;71.37;103710.09;5041019;28;20033;-80
2023/01/23 03:14:00;;;;;;;1.42;1.38;;;;;;;4.34;71.24;103718.91;5045196;28;20044;-80
2023/01/23 03:16:27;;;;;;;0.22;0.22;;;;;;;4.35;71.28;103720.72;5049381;28;20052;-79
2023/01/23 03:18:53;;;;;;;0.15;0.15;;;;;;;4.36;71.78;103720.78;5047079;28;20502;-80
2023/01/23 03:21:20;;;;;;;0.20;0.20;;;;;;;4.37;71.71;103727.84;5046063;28;20421;-80
2023/01/23 03:23:47;;;;;;;0.30;0.30;;;;;;;4.37;71.88;103724.28;5049386;28;20049;-80
2023/01/23 03:26:13;;;;;;;0.55;0.55;;;;;;;4.37;71.70;103735.72;5047724;28;20432;-80
2023/01/23 03:31:25;;;;;;;0.45;0.45;;;;;;;4.40;71.45;103742.84;5047173;28;20041;-80
2023/01/23 03:33:52;;;;;;;0.20;0.20;;;;;;;4.39;71.64;103735.78;5045816;28;20038;-80
2023/01/23 03:36:18;;;;;;;0.20;0.20;;;;;;;4.40;71.42;103742.84;5050295;28;20025;-80
2023/01/23 03:41:23;;;;;;;0.30;0.30;;;;;;;4.41;71.68;103746.34;5047325;28;20400;-80
2023/01/23 03:41:30;;;;;;;1.08;1.05;;;;;;;4.43;71.61;103743.00;5046469;28;20037;-80
2023/01/23 03:43:56;;;;;;;0.17;0.17;;;;;;;4.45;71.61;103732.56;5047455;28;20029;-80
2023/01/23 03:46:23;;;;;;;0.10;0.10;;;;;;;4.47;71.46;103739.69;5047666;28;20529;-80
2023/01/23 03:48:49;;;;;;;0.10;0.10;;;;;;;4.48;71.50;103738.88;5046961;28;20087;-80
2023/01/23 03:51:15;;;;;;;1.00;0.68;;;;;;;4.50;71.61;103739.88;5046421;28;20051;-80
2023/01/23 03:53:41;;;;;;;0.20;0.20;;;;;;;4.51;71.73;103743.38;5034937;28;20087;-80
2023/01/23 03:56:07;;;;;;;0.10;0.10;;;;;;;4.51;71.63;103736.44;5033140;28;21268;-80
2023/01/23 03:58:33;;;;;;;0.10;0.10;;;;;;;4.50;71.34;103742.50;5031604;28;20627;-79
2023/01/23 04:01:02;;;;;;;0.10;0.10;;;;;;;4.52;71.48;103738.22;5031294;28;20036;-80
2023/01/23 04:03:29;;;;;;;0.13;0.13;;;;;;;4.51;71.53;103731.19;5034990;28;20025;-80
2023/01/23 04:05:57;;;;;;;0.20;0.20;;;;;;;4.49;71.16;103735.44;5032657;28;20055;-79
2023/01/23 04:08:23;;;;;;;0.10;0.10;;;;;;;4.48;71.58;103736.25;5032013;28;20612;-80
2023/01/23 04:10:49;;;;;;;0.20;0.20;;;;;;;4.45;71.34;103741.34;5034107;28;20041;-80
2023/01/23 04:13:16;;;;;;;0.20;0.20;;;;;;;4.47;71.68;103746.69;5032499;28;20040;-80
2023/01/23 04:15:42;;;;;;;0.10;0.10;;;;;;;4.47;71.53;103738.81;5034162;28;20112;-80
2023/01/23 04:18:08;;;;;;;0.10;0.10;;;;;;;4.48;71.42;103738.88;5034550;28;20037;-79
2023/01/23 04:20:34;;;;;;;0.10;0.10;;;;;;;4.48;71.33;103730.09;5032647;28;20515;-80
2023/01/23 04:23:00;;;;;;;0.17;0.17;;;;;;;4.47;71.69;103738.81;5035334;28;20104;-79
2023/01/23 04:25:27;;;;;;;0.60;0.60;;;;;;;4.45;71.30;103730.84;5032149;28;20038;-80
2023/01/23 04:27:53;;;;;;;0.10;0.10;;;;;;;4.45;71.18;103733.47;5033099;28;20033;-80
2023/01/23 04:30:19;;;;;;;0.25;0.25;;;;;;;4.45;71.12;103732.56;5032939;28;20021;-80
2023/01/23 04:32:45;;;;;;;0.20;0.20;;;;;;;4.43;71.21;103736.84;5037055;28;20091;-81
2023/01/23 04:35:11;;;;;;;0.20;0.20;;;;;;;4.42;71.15;103735.94;5035253;28;20025;-80
2023/01/23 04:37:37;;;;;;;0.55;0.55;;;;;;;4.42;71.52;103728.06;5032466;28;20124;-80
2023/01/23 04:40:04;;;;;;;0.15;0.15;;;;;;;4.43;71.43;103727.22;5030129;28;20030;-80
2023/01/23 04:42:30;;;;;;;0.13;0.13;;;;;;;4.44;71.80;103738.66;5036988;28;20030;-80
2023/01/23 04:44:56;;;;;;;0.30;0.30;;;;;;;4.43;71.51;103737.75;5035233;28;20033;-80
2023/01/23 04:47:22;;;;;;;0.20;0.20;;;;;;;4.44;71.46;103738.66;5034312;28;20037;-80
2023/01/23 04:49:48;;;;;;;0.32;0.32;;;;;;;4.43;71.36;103737.75;5034629;28;20030;-80
2023/01/23 04:52:14;;;;;;;0.10;0.10;;;;;;;4.43;71.44;103734.22;5033981;28;20032;-80
2023/01/23 04:54:40;;;;;;;0.10;0.10;;;;;;;4.44;71.49;103744.78;5034274;28;20045;-80
2023/01/23 04:57:06;;;;;;;0.17;0.17;;;;;;;4.45;71.77;103750.94;5033222;28;20029;-79
2023/01/23 04:59:32;;;;;;;0.20;0.20;;;;;;;4.43;71.40;103744.72;5033682;28;20476;-80
2023/01/23 05:01:58;;;;;;;0.20;0.20;;;;;;;4.45;71.42;103756.19;5035190;28;20422;-80
2023/01/23 05:04:24;;;;;;;0.20;0.20;;;;;;;4.45;71.29;103757.09;5030840;28;20049;-80
2023/01/23 05:06:50;;;;;;;0.10;0.10;;;;;;;4.47;71.66;103765.06;5027474;28;20053;-80
2023/01/23 05:09:16;;;;;;;0.10;0.10;;;;;;;4.47;71.67;103768.56;5025737;28;20626;-81
2023/01/23 05:11:42;;;;;;;0.10;0.10;;;;;;;4.50;71.82;103767.84;5041923;28;20037;-80
2023/01/23 05:14:08;;;;;;;0.20;0.20;;;;;;;4.52;71.48;103772.38;5051558;28;20025;-80
2023/01/23 05:16:34;;;;;;;0.10;0.10;;;;;;;4.53;71.79;103776.78;5032641;28;20035;-80
2023/01/23 05:19:00;;;;;;;0.20;0.20;;;;;;;4.53;71.68;103774.16;5031036;28;20556;-80
2023/01/23 05:21:27;;;;;;;0.15;0.15;;;;;;;4.53;71.54;103770.63;5033382;28;20056;-81
2023/01/23 05:23:53;;;;;;;0.20;0.20;;;;;;;4.54;71.59;103769.81;5031944;28;20550;-81
2023/01/23 05:26:19;;;;;;;0.10;0.10;;;;;;;4.52;71.42;103768.81;5033785;28;20033;-81
2023/01/23 05:28:45;;;;;;;0.17;0.17;;;;;;;4.52;71.43;103769.75;5034330;28;20115;-80
2023/01/23 05:31:12;;;;;;;0.20;0.20;;;;;;;4.50;71.34;103759.97;5026822;28;20033;-81
2023/01/23 05:33:39;;;;;;;0.20;0.20;;;;;;;4.51;71.61;103759.13;5031206;28;20041;-80
2023/01/23 05:36:05;;;;;;;0.30;0.30;;;;;;;4.51;71.45;103751.25;5026269;28;20043;-81
2023/01/23 05:38:32;;;;;;;0.55;0.55;;;;;;;4.51;71.81;103757.44;5037028;28;20524;-81
2023/01/23 05:40:58;;;;;;;0.10;0.10;;;;;;;4.50;71.58;103750.38;5029719;28;20128;-81
2023/01/23 05:43:24;;;;;;;0.20;0.20;;;;;;;4.49;71.47;103756.44;5029267;28;20045;-80
2023/01/23 05:45:50;;;;;;;0.20;0.20;;;;;;;4.49;71.76;103752.94;5033751;28;20115;-81
2023/01/23 05:48:16;;;;;;;0.10;0.10;;;;;;;4.49;71.67;103753.81;5032033;28;20405;-81
2023/01/23 05:50:42;;;;;;;0.20;0.20;;;;;;;4.51;71.54;103757.44;5025891;28;20033;-81
2023/01/23 05:53:08;;;;;;;0.20;0.20;;;;;;;4.52;71.94;103763.56;5034062;28;20037;-80
2023/01/23 05:55:37;;;;;;;0.10;0.10;;;;;;;4.54;71.59;103772.44;5031156;28;20525;-80
2023/01/23 05:58:03;;;;;;;0.10;0.10;;;;;;;4.54;71.92;103783.84;5028649;28;20492;-81
2023/01/23 06:00:29;;;;;;;1.35;0.77;;;;;;;4.54;71.78;103786.47;5029072;28;20033;-81
2023/01/23 06:02:55;;;;;;;0.20;0.20;;;;;;;4.54;71.80;103789.09;5038870;28;20415;-81
2023/01/23 06:05:22;;;;;;;0.10;0.10;;;;;;;4.53;71.72;103787.28;5032948;28;20501;-80
2023/01/23 06:07:48;;;;;;;0.20;0.20;;;;;;;4.54;71.80;103778.59;5036582;28;20496;-80
2023/01/23 06:10:14;;;;;;;0.22;0.22;;;;;;;4.54;71.76;103783.84;5030059;28;20591;-80
2023/01/23 06:12:40;;;;;;;0.10;0.10;;;;;;;4.57;71.77;103782.19;5036088;28;20454;-80
2023/01/23 06:15:07;;;;;;;0.20;0.20;;;;;;;4.55;72.05;103779.50;5036742;28;20025;-80
2023/01/23 06:17:33;;;;;;;0.43;0.43;;;;;;;4.57;72.04;103785.72;5033121;28;20068;-81
2023/01/23 06:19:59;;;;;;;0.93;0.60;;;;;;;4.57;71.82;103783.09;5036403;28;20392;-81
2023/01/23 06:22:25;;;;;;;0.10;0.10;;;;;;;4.59;72.03;103775.31;5036126;28;20065;-80
2023/01/23 06:24:51;;;;;;;0.10;0.10;;;;;;;4.59;71.80;103786.72;5035934;28;20086;-81
2023/01/23 06:27:17;;;;;;;0.10;0.10;;;;;;;4.58;71.85;103784.00;5034398;28;20033;-81
2023/01/23 06:29:44;;;;;;;0.20;0.20;;;;;;;4.58;71.85;103779.66;5031001;28;20022;-81
2023/01/23 06:32:10;;;;;;;0.10;0.10;;;;;;;4.60;72.00;103790.22;5027239;28;20382;-81
2023/01/23 06:34:36;;;;;;;0.15;0.15;;;;;;;4.60;71.86;103791.16;5031958;28;20030;-81
2023/01/23 06:37:02;;;;;;;0.10;0.10;;;;;;;4.62;72.24;103793.84;5031119;28;20056;-81
2023/01/23 06:39:29;;;;;;;0.22;0.22;;;;;;;4.62;72.05;103796.47;5034804;28;20503;-81
2023/01/23 06:41:56;;;;;;;0.10;0.10;;;;;;;4.63;71.93;103787.78;5040922;28;20179;-80
2023/01/23 06:44:23;;;;;;;0.10;0.10;;;;;;;4.64;72.21;103789.59;5035280;28;20773;-81
2023/01/23 06:46:51;;;;;;;0.20;0.20;;;;;;;4.63;71.89;103793.03;5032400;28;20033;-81
2023/01/23 06:49:17;;;;;;;0.20;0.20;;;;;;;4.62;71.88;103785.97;5032232;28;20109;-80
2023/01/23 06:51:43;;;;;;;0.20;0.20;;;;;;;4.57;71.77;103793.59;5028754;28;20025;-80
2023/01/23 06:54:09;;;;;;;0.57;0.57;;;;;;;4.57;71.74;103785.72;5028343;28;20041;-80
2023/01/23 06:56:35;;;;;;;0.10;0.10;;;;;;;4.54;71.44;103783.84;5031924;28;20298;-80
2023/01/23 06:59:01;;;;;;;0.10;0.10;;;;;;;4.53;71.51;103791.63;5030078;28;20532;-81
2023/01/23 07:01:27;;;;;;;0.20;0.20;;;;;;;4.53;71.63;103783.75;5026606;28;20685;-80
2023/01/23 07:03:54;;;;;;;0.10;0.10;;;;;;;4.53;71.57;103782.03;5034059;28;20489;-80
2023/01/23 07:06:20;;;;;;;0.20;0.20;;;;;;;4.55;72.04;103790.00;5028468;28;20029;-81
2023/01/23 07:08:46;;;;;;;0.10;0.10;;;;;;;4.56;71.79;103788.28;5033792;28;20026;-80
2023/01/23 07:11:12;;;;;;;8.63;2.80;;;;;;;4.53;71.45;103803.03;5031100;28;20108;-81
2023/01/23 07:13:38;;;;;;;0.40;0.40;;;;;;;4.53;71.50;103799.50;5033047;28;20033;-80
2023/01/23 07:16:04;;;;;;;0.68;0.68;;;;;;;4.52;71.71;103790.75;5033639;28;20041;-80
2023/01/23 07:18:31;;;;;;;0.10;0.10;;;;;;;4.55;72.00;103797.88;5026768;28;20066;-80
2023/01/23 07:20:57;;;;;;;0.20;0.20;;;;;;;4.56;72.17;103804.03;5032834;28;20029;-80
2023/01/23 07:23:24;;;;;;;0.10;0.10;;;;;;;4.57;71.78;103808.47;5032594;28;20664;-80
2023/01/23 07:25:50;;;;;;;0.10;0.10;;;;;;;4.57;71.61;103814.59;5024574;28;20057;-79
2023/01/23 07:28:16;;;;;;;0.20;0.20;;;;;;;4.56;71.70;103811.91;5033218;28;20752;-81
2023/01/23 07:30:42;;;;;;;0.10;0.10;;;;;;;4.56;71.66;103809.28;5031268;28;20049;-80
2023/01/23 07:33:08;;;;;;;0.60;0.60;;;;;;;4.56;72.04;103811.91;5034390;28;20097;-81
2023/01/23 07:35:36;;;;;;;0.17;0.17;;;;;;;4.57;71.73;103811.97;5033518;28;20051;-81
2023/01/23 07:38:03;;;;;;;0.77;0.77;;;;;;;4.58;71.92;103820.78;5036700;28;20076;-80
2023/01/23 07:40:29;;;;;;;0.20;0.20;;;;;;;4.59;71.92;103822.59;5044488;28;20036;-81
2023/01/23 07:42:56;;;;;;;0.20;0.20;;;;;;;4.59;72.02;103823.47;5052801;28;20083;-80
2023/01/23 07:45:22;;;;;;;0.20;0.20;;;;;;;4.59;71.82;103827.84;5046083;28;20071;-80
2023/01/23 07:47:48;;;;;;;1.77;1.55;;;;;;;4.61;71.91;103836.69;5057943;28;20016;-79
2023/01/23 07:50:14;;;;;;;0.20;0.20;;;;;;;4.60;71.76;103830.53;5063588;28;20040;-79
2023/01/23 07:52:40;;;;;;;0.20;0.20;;;;;;;4.61;71.96;103841.94;5046193;28;20037;-80
2023/01/23 07:55:07;;;;;;;0.30;0.30;;;;;;;4.61;71.96;103844.56;5048572;28;20052;-80
2023/01/23 07:57:33;;;;;;;0.20;0.20;;;;;;;4.61;71.89;103841.94;5050498;28;20543;-82
2023/01/23 07:59:59;;;;;;;0.63;0.63;;;;;;;4.62;72.18;103843.75;5049516;28;20067;-81
2023/01/23 08:02:25;;;;;;;0.28;0.28;;;;;;;4.63;71.84;103853.44;5052759;28;20497;-80
2023/01/23 08:04:51;;;;;;;3.03;2.78;;;;;;;4.62;71.56;103849.00;5046658;28;20064;-81
2023/01/23 08:07:17;;;;;;;2.63;1.27;;;;;;;4.63;71.79;103850.81;5050046;28;20032;-81
2023/01/23 08:09:43;;;;;;;0.20;0.20;;;;;;;4.62;72.05;103849.91;5053203;28;20067;-81
2023/01/23 08:12:11;;;;;;;0.63;0.63;;;;;;;4.63;72.07;103845.56;5052980;28;20028;-80
2023/01/23 08:14:38;;;;;;;0.17;0.17;;;;;;;4.64;71.99;103853.50;5052927;28;20136;-80
2023/01/23 08:17:04;;;;;;;0.30;0.30;;;;;;;4.69;72.06;103856.38;5050918;28;20017;-81
2023/01/23 08:19:30;;;;;;;0.10;0.10;;;;;;;4.71;71.83;103865.25;5050088;28;20039;-80
2023/01/23 08:21:56;;;;;;;0.20;0.20;;;;;;;4.73;72.32;103863.59;5048561;28;20041;-81
2023/01/23 08:24:23;;;;;;;0.60;0.60;;;;;;;4.76;72.19;103861.16;5051026;28;20041;-81
2023/01/23 08:26:49;;;;;;;0.20;0.20;;;;;;;4.79;72.20;103863.03;5045651;28;20093;-81
2023/01/23 08:29:15;;;;;;;0.17;0.17;;;;;;;4.81;72.11;103867.53;5044439;28;20488;-81
2023/01/23 08:31:41;;;;;;;0.45;0.45;;;;;;;4.84;71.79;103872.06;5048636;28;20076;-81
2023/01/23 08:34:07;;;;;;;0.77;0.77;;;;;;;4.85;72.24;103864.25;5035339;28;20091;-81
2023/01/23 08:36:33;;;;;;;0.10;0.10;;;;;;;4.86;72.13;103863.44;5035152;28;20041;-81
2023/01/23 08:38:59;;;;;;;0.20;0.20;;;;;;;4.88;71.95;103866.13;5034160;28;20053;-81
2023/01/23 08:41:25;;;;;;;0.20;0.20;;;;;;;4.92;71.97;103875.06;5039191;28;20547;-81
2023/01/23 08:43:51;;;;;;;0.20;0.20;;;;;;;4.93;72.03;103882.13;5039060;28;20045;-81
2023/01/23 08:46:17;;;;;;;0.63;0.63;;;;;;;4.95;72.11;103891.00;5037881;28;20546;-80
2023/01/23 08:48:43;;;;;;;0.20;0.20;;;;;;;4.97;72.00;103885.03;5036411;28;20037;-81
2023/01/23 08:51:12;;;;;;;0.10;0.10;;;;;;;5.00;72.11;103884.28;5035581;28;20030;-79
2023/01/23 08:53:39;;;;;;;0.52;0.52;;;;;;;5.02;72.02;103893.13;5033063;28;20501;-80
2023/01/23 08:56:09;;;;;;;0.35;0.35;;;;;;;5.04;72.14;103886.22;5036535;28;20041;-80
2023/01/23 08:58:35;;;;;;;0.30;0.30;;;;;;;5.04;72.28;103885.34;5036946;28;20041;-80
2023/01/23 09:01:01;;;;;;;0.20;0.20;;;;;;;5.00;71.61;103886.91;5035776;28;20033;-80
2023/01/23 09:03:27;;;;;;;0.10;0.10;;;;;;;5.03;71.62;103884.41;5036336;28;20072;-81
2023/01/23 09:05:54;;;;;;;0.10;0.10;;;;;;;5.06;72.00;103895.09;5035092;28;20108;-80
2023/01/23 09:08:20;;;;;;;0.20;0.20;;;;;;;5.08;71.78;103882.94;5036081;28;20033;-80
2023/01/23 09:10:46;;;;;;;0.20;0.20;;;;;;;5.11;71.96;103890.97;5037624;28;20048;-80
2023/01/23 09:13:12;;;;;;;0.20;0.20;;;;;;;5.15;71.86;103899.94;5035952;28;20026;-81
2023/01/23 09:15:39;;;;;;;0.20;0.20;;;;;;;5.12;71.31;103903.31;5034963;28;20049;-80
2023/01/23 09:18:05;;;;;;;0.20;0.20;;;;;;;5.17;71.77;103896.56;5036111;28;20052;-80
2023/01/23 09:20:31;;;;;;;0.22;0.22;;;;;;;5.20;71.77;103901.06;5033805;28;20477;-80
2023/01/23 09:22:57;;;;;;;0.10;0.10;;;;;;;5.25;71.92;103898.69;5035640;28;20041;-80
2023/01/23 09:25:23;;;;;;;0.85;0.85;;;;;;;5.28;71.73;103901.47;5036286;28;20021;-80
2023/01/23 09:27:49;;;;;;;0.20;0.20;;;;;;;5.32;71.89;103898.16;5045499;28;20033;-80
2023/01/23 09:30:16;;;;;;;0.10;0.10;;;;;;;5.34;71.46;103907.03;5046598;28;20030;-79
2023/01/23 09:32:42;;;;;;;0.10;0.10;;;;;;;5.38;71.61;103911.63;5034835;28;20059;-81
2023/01/23 09:35:09;;;;;;;0.10;0.10;;;;;;;5.40;71.41;103911.72;5034543;28;20094;-81
2023/01/23 09:38:06;;;;;;;0.10;0.10;;;;;;;5.40;71.28;103904.72;5036991;28;20037;-81
2023/01/23 09:40:23;;;;;;;0.10;0.10;;;;;;;5.48;71.40;103911.28;5029872;28;20030;-80
2023/01/23 09:42:50;;;;;;;0.15;0.15;;;;;;;5.53;71.59;103913.22;5036965;28;20033;-81
2023/01/23 09:45:20;;;;;;;0.20;0.20;;;;;;;5.59;71.61;103913.53;5034818;28;20293;-81
2023/01/23 09:47:55;;;;;;;0.10;0.10;;;;;;;5.65;71.75;103911.22;5038044;28;20034;-82
2023/01/23 09:50:35;;;;;;;0.20;0.20;;;;;;;5.69;71.17;103909.63;5037003;28;20013;-81
2023/01/23 09:53:13;;;;;;;0.10;0.10;;;;;;;5.71;71.28;103922.03;5031727;28;20424;-81
2023/01/23 09:55:52;;;;;;;0.13;0.13;;;;;;;5.72;71.51;103915.97;5035106;28;20087;-81
2023/01/23 09:58:33;;;;;;;0.38;0.38;;;;;;;5.82;71.25;103917.31;5049778;28;20107;-81
2023/01/23 10:00:59;;;;;;;0.65;0.65;;;;;;;5.82;71.37;103912.94;5050701;28;20036;-81
2023/01/23 10:03:30;;;;;;;0.15;0.15;;;;;;;5.90;71.08;103912.44;5053819;28;20120;-80
2023/01/23 10:08:49;;;;;;;0.20;0.20;;;;;;;5.99;71.03;103926.06;5102433;27;1172988;-80
2023/01/23 10:11:43;;;;;;;0.20;0.20;;;;;;;6.05;71.27;103917.56;5132873;27;20784;-80
2023/01/23 10:17:13;;;;;;;0.75;0.75;;;;;;;6.14;70.61;103918.91;5145290;27;20379;-82
2023/01/23 10:20:19;;;;;;;0.15;0.15;;;;;;;6.22;70.51;103907.81;5105257;28;20145;-83
2023/01/23 10:25:31;;;;;;;0.55;0.55;;;;;;;6.25;70.48;103898.34;5062813;28;20388;-80
2023/01/23 10:28:15;;;;;;;0.45;0.45;;;;;;;6.33;70.81;103896.09;5062201;28;20278;-79
2023/01/23 10:30:45;;;;;;;0.20;0.20;;;;;;;6.39;70.91;103884.94;5041029;28;20508;-80
2023/01/23 10:33:15;;;;;;;0.20;0.20;;;;;;;6.47;71.05;103891.47;5039076;28;20053;-80
2023/01/23 10:38:47;;;;;;;0.50;0.50;;;;;;;6.64;70.78;103884.31;5069248;28;20680;-80
2023/01/23 10:41:22;;;;;;;0.20;0.20;;;;;;;6.62;70.37;103889.53;5061863;28;20033;-80
2023/01/23 10:43:51;;;;;;;0.20;0.20;;;;;;;6.67;70.28;103883.53;5054672;28;20025;-80
2023/01/23 10:46:22;;;;;;;0.50;0.50;;;;;;;6.70;70.28;103887.22;5053213;28;20029;-80
2023/01/23 10:48:51;;;;;;;0.82;0.82;;;;;;;6.73;69.50;103887.38;5050914;28;20044;-79
2023/01/23 10:56:58;;;;;;;0.25;0.25;;;;;;;6.82;70.24;103888.59;5060394;28;20374;-81
2023/01/23 11:04:43;;;;;;;1.00;0.68;;;;;;;6.79;69.13;103898.19;5067804;27;20377;-79
2023/01/23 11:07:16;;;;;;;0.28;0.28;;;;;;;6.85;69.87;103900.19;5047843;28;20093;-79
2023/01/23 11:12:49;;;;;;;0.20;0.20;;;;;;;6.90;69.09;103890.78;5099839;27;1171593;-80
2023/01/23 11:15:39;;;;;;;0.20;0.20;;;;;;;6.96;68.70;103895.41;5132923;27;20296;-78
2023/01/23 11:18:32;;;;;;;0.10;0.10;;;;;;;6.95;68.48;103894.53;5130249;27;20045;-79
2023/01/23 11:20:58;;;;;;;0.38;0.38;;;;;;;6.90;68.41;103887.22;5125987;28;20371;-79
2023/01/23 11:23:25;;;;;;;0.20;0.20;;;;;;;6.93;69.26;103896.16;5129343;27;20034;-79
2023/01/23 11:25:53;;;;;;;0.35;0.35;;;;;;;6.96;68.42;103893.66;5128204;28;20068;-79
2023/01/23 11:34:07;;;;;;;4.85;1.77;;;;;;;7.09;68.52;103897.75;5103292;27;20354;-79
2023/01/23 11:39:21;;;;;;;0.20;0.20;;;;;;;7.00;68.73;103886.78;5071655;28;20357;-79
2023/01/23 11:41:47;;;;;;;0.22;0.22;;;;;;;6.90;67.79;103893.41;5061927;28;20115;-80
2023/01/23 11:44:18;;;;;;;0.32;0.32;;;;;;;6.88;68.43;103886.25;5068406;28;20033;-80
2023/01/23 11:47:24;;;;;;;1.33;1.17;;;;;;;6.88;68.01;103884.53;5061180;28;20028;-80
2023/01/23 11:55:44;;;;;;;0.20;0.20;;;;;;;6.87;68.49;103905.56;5084439;27;1873249;-80
2023/01/23 12:01:17;;;;;;;0.20;0.20;;;;;;;6.92;68.96;103898.75;5091492;27;20380;-79
2023/01/23 12:09:19;;;;;;;0.20;0.20;;;;;;;6.99;67.27;103898.19;5094208;28;20345;-78
2023/01/23 12:12:06;;;;;;;0.50;0.50;;;;;;;7.02;66.35;103890.41;5091199;28;20032;-78
2023/01/23 12:17:40;;;;;;;0.73;0.73;;;;;;;7.07;67.62;103890.63;5119507;27;20416;-80
2023/01/23 12:29:12;;;;;;;0.10;0.10;;;;;;;7.19;66.88;103882.31;5110963;27;20886;-89
2023/01/23 12:40:06;;;;;;;1.25;0.70;;;;;;;7.39;65.37;103893.72;5104364;27;1879603;-78
2023/01/23 12:42:57;;;;;;;2.45;0.70;;;;;;;7.38;65.83;103895.47;5135081;28;20423;-79
2023/01/23 12:45:27;;;;;;;0.10;0.10;;;;;;;7.40;66.24;103901.72;5133245;28;20032;-79
2023/01/23 12:50:56;;;;;;;0.10;0.10;;;;;;;7.55;64.83;103914.66;5139848;27;1175135;-79
2023/01/23 12:53:22;;;;;;;3.20;0.85;;;;;;;7.58;65.38;103909.50;5158594;27;20274;-79
2023/01/23 12:56:01;;;;;;;0.10;0.10;;;;;;;7.68;64.81;103908.13;5157362;27;20041;-81
2023/01/23 12:58:31;;;;;;;0.90;0.85;;;;;;;7.72;64.79;103907.41;5156277;27;20458;-79
2023/01/23 13:03:46;;;;;;;0.40;0.40;;;;;;;7.72;63.72;103896.88;5136016;27;1174848;-79
2023/01/23 13:06:27;;;;;;;0.40;0.40;;;;;;;7.77;64.28;103895.31;5137084;27;20649;-79